createdAt,value
2023-03-31T00:00:48.336Z,79.95
2023-03-31T00:01:48.381Z,80.05
2023-03-31T00:02:48.490Z,80.05
2023-03-31T00:03:48.517Z,79.64
2023-03-31T00:04:48.301Z,79.85
2023-03-31T00:05:48.283Z,80.05
2023-03-31T00:06:48.250Z,79.95
2023-03-31T00:07:48.260Z,80.16
2023-03-31T00:08:48.255Z,79.95
2023-03-31T00:09:48.245Z,79.95
2023-03-31T00:10:48.204Z,79.95
2023-03-31T00:11:48.191Z,80.05
2023-03-31T00:12:48.168Z,79.95
2023-03-31T00:13:48.177Z,80.05
2023-03-31T00:14:48.158Z,80.26
2023-03-31T00:15:48.160Z,80.36
2023-03-31T00:16:48.180Z,80.46
2023-03-31T00:17:48.147Z,80.46
2023-03-31T00:18:48.100Z,80.66
2023-03-31T00:19:48.140Z,80.26
2023-03-31T00:20:48.076Z,79.95
2023-03-31T00:21:48.072Z,79.54
2023-03-31T00:22:48.058Z,79.03
2023-03-31T00:23:48.062Z,77.61
2023-03-31T00:24:48.092Z,77.61
2023-03-31T00:25:48.027Z,77.67
2023-03-31T00:26:48.019Z,77.78
2023-03-31T00:27:47.997Z,77.78
2023-03-31T00:28:48.776Z,77.67
2023-03-31T00:29:47.971Z,77.78
2023-03-31T00:30:47.942Z,77.67
2023-03-31T00:31:48.069Z,77.87
2023-03-31T00:32:47.951Z,77.87
2023-03-31T00:33:47.952Z,77.87
2023-03-31T00:34:47.880Z,77.87
2023-03-31T00:35:47.925Z,78.39
2023-03-31T00:36:48.009Z,78.28
2023-03-31T00:37:47.885Z,78.32
2023-03-31T00:38:47.812Z,78.42
2023-03-31T00:39:47.822Z,78.32
2023-03-31T00:40:47.796Z,78.32
2023-03-31T00:41:47.824Z,78.53
2023-03-31T00:42:47.771Z,78.73
2023-03-31T00:43:47.789Z,78.53
2023-03-31T00:44:47.737Z,79.14
2023-03-31T00:45:47.793Z,78.93
2023-03-31T00:46:47.753Z,79.14
2023-03-31T00:47:47.847Z,78.93
2023-03-31T00:48:47.679Z,79.03
2023-03-31T00:49:47.701Z,79.34
2023-03-31T00:50:47.660Z,78.83
2023-03-31T00:51:47.720Z,79.85
2023-03-31T00:52:47.630Z,80.05
2023-03-31T00:53:47.655Z,80.56
2023-03-31T00:54:47.605Z,80.56
2023-03-31T00:55:47.600Z,78.63
2023-03-31T00:56:47.662Z,79.03
2023-03-31T00:57:47.625Z,79.03
2023-03-31T00:58:47.575Z,79.79
2023-03-31T00:59:47.566Z,80.40
2023-03-31T01:00:47.520Z,80.09
2023-03-31T01:02:41.706Z,80.29
2023-03-31T01:03:42.648Z,80.70
2023-03-31T01:04:42.589Z,80.70
2023-03-31T01:05:42.522Z,80.50
2023-03-31T01:06:42.542Z,79.89
2023-03-31T01:07:42.512Z,79.89
2023-03-31T01:08:42.530Z,79.68
2023-03-31T01:09:42.483Z,79.99
2023-03-31T01:10:42.486Z,79.38
2023-03-31T01:11:42.446Z,78.97
2023-03-31T01:12:42.458Z,78.87
2023-03-31T01:13:42.437Z,79.17
2023-03-31T01:14:42.435Z,79.27
2023-03-31T01:15:42.389Z,79.07
2023-03-31T01:16:42.543Z,79.38
2023-03-31T01:17:42.474Z,78.97
2023-03-31T01:18:42.436Z,78.97
2023-03-31T01:19:42.342Z,78.66
2023-03-31T01:20:42.338Z,79.07
2023-03-31T01:21:42.315Z,78.97
2023-03-31T01:22:42.330Z,79.07
2023-03-31T01:23:42.293Z,78.66
2023-03-31T01:24:42.287Z,79.07
2023-03-31T01:25:42.270Z,78.87
2023-03-31T01:26:42.266Z,79.58
2023-03-31T01:27:42.224Z,79.48
2023-03-31T01:28:43.154Z,79.58
2023-03-31T01:29:42.232Z,78.97
2023-03-31T01:30:42.199Z,79.68
2023-03-31T01:31:42.226Z,79.48
2023-03-31T01:32:42.237Z,79.58
2023-03-31T01:33:42.177Z,79.99
2023-03-31T01:34:42.169Z,80.70
2023-03-31T01:35:42.171Z,81.01
2023-03-31T01:36:43.175Z,81.25
2023-03-31T01:37:42.103Z,81.96
2023-03-31T01:38:42.109Z,82.27
2023-03-31T01:39:42.137Z,82.27
2023-03-31T01:40:42.068Z,82.68
2023-03-31T01:41:42.069Z,82.88
2023-03-31T01:42:42.037Z,83.18
2023-03-31T01:43:42.012Z,83.53
2023-03-31T01:44:42.032Z,83.94
2023-03-31T01:45:41.979Z,84.04
2023-03-31T01:46:42.052Z,84.34
2023-03-31T01:47:41.999Z,84.45
2023-03-31T01:48:41.978Z,84.66
2023-03-31T01:49:41.949Z,84.96
2023-03-31T01:50:41.941Z,84.96
2023-03-31T01:51:41.942Z,85.37
2023-03-31T01:52:41.926Z,85.47
2023-03-31T01:53:41.874Z,85.68
2023-03-31T01:54:41.884Z,85.77
2023-03-31T01:55:41.861Z,86.08
2023-03-31T01:56:41.889Z,86.39
2023-03-31T01:57:41.855Z,86.33
2023-03-31T01:58:41.836Z,86.73
2023-03-31T01:59:41.795Z,86.83
2023-03-31T02:00:41.817Z,86.73
2023-03-31T02:01:41.823Z,87.04
2023-03-31T02:02:41.829Z,87.14
2023-03-31T02:03:41.812Z,87.14
2023-03-31T02:04:41.763Z,87.65
2023-03-31T02:05:41.721Z,87.65
2023-03-31T02:06:41.728Z,87.45
2023-03-31T02:07:41.711Z,87.55
2023-03-31T02:08:41.702Z,87.85
2023-03-31T02:09:41.725Z,88.06
2023-03-31T02:10:41.695Z,87.85
2023-03-31T02:11:41.635Z,87.76
2023-03-31T02:12:42.186Z,87.76
2023-03-31T02:13:41.639Z,88.06
2023-03-31T02:14:41.612Z,88.37
2023-03-31T02:15:41.608Z,88.57
2023-03-31T02:16:41.681Z,88.67
2023-03-31T02:17:41.586Z,88.82
2023-03-31T02:18:41.588Z,88.88
2023-03-31T02:19:41.529Z,88.92
2023-03-31T02:20:41.548Z,88.92
2023-03-31T02:21:41.513Z,89.02
2023-03-31T02:22:41.506Z,89.02
2023-03-31T02:23:41.500Z,88.61
2023-03-31T02:24:41.522Z,88.92
2023-03-31T02:25:41.473Z,89.02
2023-03-31T02:26:41.500Z,88.92
2023-03-31T02:27:41.441Z,89.12
2023-03-31T02:28:41.449Z,89.12
2023-03-31T02:29:41.399Z,89.12
2023-03-31T02:30:41.984Z,89.12
2023-03-31T02:31:41.441Z,89.23
2023-03-31T02:32:41.441Z,89.32
2023-03-31T02:33:41.369Z,89.32
2023-03-31T02:34:41.342Z,89.43
2023-03-31T02:35:41.363Z,89.53
2023-03-31T02:36:41.358Z,89.63
2023-03-31T02:37:41.322Z,89.73
2023-03-31T02:38:41.322Z,89.73
2023-03-31T02:39:41.266Z,89.84
2023-03-31T02:40:41.297Z,89.94
2023-03-31T02:41:41.225Z,89.73
2023-03-31T02:42:41.261Z,89.73
2023-03-31T02:43:41.239Z,89.73
2023-03-31T02:44:42.117Z,89.73
2023-03-31T02:45:41.209Z,89.94
2023-03-31T02:46:41.207Z,89.94
2023-03-31T02:47:41.167Z,89.88
2023-03-31T02:48:41.198Z,89.94
2023-03-31T02:49:41.127Z,89.88
2023-03-31T02:50:41.139Z,89.88
2023-03-31T02:51:41.101Z,89.88
2023-03-31T02:52:41.134Z,89.78
2023-03-31T02:53:41.102Z,89.88
2023-03-31T02:54:41.105Z,89.78
2023-03-31T02:55:41.062Z,89.88
2023-03-31T02:56:41.054Z,89.98
2023-03-31T02:57:41.025Z,89.88
2023-03-31T02:58:41.076Z,89.98
2023-03-31T02:59:41.035Z,90.08
2023-03-31T03:00:41.018Z,90.08
2023-03-31T03:01:41.055Z,90.08
2023-03-31T03:02:41.074Z,89.98
2023-03-31T03:03:40.978Z,89.88
2023-03-31T03:04:40.985Z,89.98
2023-03-31T03:05:40.918Z,90.19
2023-03-31T03:06:40.940Z,90.39
2023-03-31T03:07:40.890Z,90.39
2023-03-31T03:08:40.912Z,90.49
2023-03-31T03:09:40.922Z,90.39
2023-03-31T03:10:40.888Z,90.19
2023-03-31T03:11:40.864Z,90.08
2023-03-31T03:12:40.863Z,90.19
2023-03-31T03:13:40.855Z,90.29
2023-03-31T03:14:40.831Z,90.19
2023-03-31T03:15:40.839Z,90.33
2023-03-31T03:16:40.824Z,90.43
2023-03-31T03:17:40.858Z,90.43
2023-03-31T03:18:40.752Z,90.53
2023-03-31T03:19:40.798Z,90.64
2023-03-31T03:20:40.742Z,90.84
2023-03-31T03:21:40.735Z,90.94
2023-03-31T03:22:40.714Z,90.99
2023-03-31T03:23:40.724Z,91.19
2023-03-31T03:24:40.699Z,91.29
2023-03-31T03:25:40.697Z,91.50
2023-03-31T03:26:40.660Z,91.80
2023-03-31T03:27:40.671Z,92.01
2023-03-31T03:28:40.679Z,92.01
2023-03-31T03:29:40.640Z,92.01
2023-03-31T03:30:40.624Z,92.01
2023-03-31T03:31:40.612Z,92.21
2023-03-31T03:32:40.670Z,92.15
2023-03-31T03:33:40.599Z,92.15
2023-03-31T03:34:40.554Z,91.85
2023-03-31T03:35:40.561Z,91.85
2023-03-31T03:36:40.514Z,91.74
2023-03-31T03:37:40.519Z,91.99
2023-03-31T03:38:40.506Z,92.10
2023-03-31T03:39:40.525Z,91.73
2023-03-31T03:40:40.478Z,91.63
2023-03-31T03:41:41.210Z,91.97
2023-03-31T03:42:40.436Z,92.74
2023-03-31T03:43:40.462Z,93.45
2023-03-31T03:44:40.409Z,93.96
2023-03-31T03:45:40.430Z,94.27
2023-03-31T03:46:40.440Z,94.48
2023-03-31T03:47:40.479Z,94.48
2023-03-31T03:48:40.355Z,94.43
2023-03-31T03:49:40.370Z,94.54
2023-03-31T03:50:40.353Z,94.84
2023-03-31T03:51:40.340Z,94.84
2023-03-31T03:52:40.297Z,94.74
2023-03-31T03:53:40.309Z,94.84
2023-03-31T03:54:40.269Z,94.80
2023-03-31T03:55:40.311Z,94.90
2023-03-31T03:56:40.601Z,95.00
2023-03-31T03:57:40.277Z,94.90
2023-03-31T03:58:40.293Z,94.90
2023-03-31T03:59:40.238Z,94.90
2023-03-31T04:00:40.227Z,95.06
2023-03-31T04:01:40.234Z,95.17
2023-03-31T04:02:40.392Z,95.06
2023-03-31T04:03:40.183Z,94.85
2023-03-31T04:04:40.186Z,94.55
2023-03-31T04:05:40.253Z,94.45
2023-03-31T04:06:40.130Z,94.45
2023-03-31T04:07:40.159Z,94.55
2023-03-31T04:08:40.088Z,94.45
2023-03-31T04:09:40.110Z,94.34
2023-03-31T04:10:40.064Z,94.24
2023-03-31T04:11:40.073Z,94.34
2023-03-31T04:12:40.085Z,94.65
2023-03-31T04:13:40.069Z,94.80
2023-03-31T04:14:40.040Z,94.80
2023-03-31T04:15:40.024Z,95.10
2023-03-31T04:16:40.051Z,95.41
2023-03-31T04:17:40.071Z,95.41
2023-03-31T04:18:39.948Z,95.51
2023-03-31T04:19:39.986Z,95.51
2023-03-31T04:20:39.931Z,95.62
2023-03-31T04:21:39.944Z,95.72
2023-03-31T04:22:39.902Z,95.82
2023-03-31T04:23:39.968Z,95.92
2023-03-31T04:24:39.876Z,96.03
2023-03-31T04:25:39.888Z,96.13
2023-03-31T04:26:39.838Z,96.33
2023-03-31T04:27:39.860Z,95.92
2023-03-31T04:28:39.831Z,95.82
2023-03-31T04:29:39.844Z,95.62
2023-03-31T04:30:39.874Z,95.62
2023-03-31T04:31:39.849Z,95.72
2023-03-31T04:32:39.779Z,96.13
2023-03-31T04:33:39.820Z,96.64
2023-03-31T04:34:39.742Z,96.95
2023-03-31T04:35:39.791Z,97.25
2023-03-31T04:36:39.716Z,97.36
2023-03-31T04:37:39.726Z,97.25
2023-03-31T04:38:39.695Z,97.15
2023-03-31T04:39:39.699Z,97.15
2023-03-31T04:40:39.657Z,96.95
2023-03-31T04:41:39.674Z,96.95
2023-03-31T04:42:39.641Z,96.95
2023-03-31T04:43:39.666Z,97.15
2023-03-31T04:44:39.617Z,97.15
2023-03-31T04:45:39.664Z,97.15
2023-03-31T04:46:39.639Z,97.36
2023-03-31T04:47:39.656Z,97.31
2023-03-31T04:48:39.572Z,97.15
2023-03-31T04:49:39.581Z,97.25
2023-03-31T04:50:39.520Z,97.41
2023-03-31T04:51:39.575Z,97.52
2023-03-31T04:52:39.507Z,97.72
2023-03-31T04:53:39.510Z,97.72
2023-03-31T04:54:39.488Z,97.62
2023-03-31T04:55:39.477Z,97.52
2023-03-31T04:56:39.503Z,97.62
2023-03-31T04:57:39.482Z,97.41
2023-03-31T04:58:39.446Z,97.41
2023-03-31T04:59:40.225Z,97.11
2023-03-31T05:00:39.398Z,96.91
2023-03-31T05:01:39.483Z,96.91
2023-03-31T05:02:39.478Z,96.91
2023-03-31T05:03:39.408Z,97.00
2023-03-31T05:04:39.359Z,97.31
2023-03-31T05:05:39.351Z,97.52
2023-03-31T05:06:39.326Z,97.72
2023-03-31T05:07:39.355Z,97.92
2023-03-31T05:08:39.297Z,97.92
2023-03-31T05:09:39.320Z,97.92
2023-03-31T05:10:39.280Z,97.82
2023-03-31T05:11:39.313Z,97.92
2023-03-31T05:12:39.292Z,98.03
2023-03-31T05:13:39.345Z,98.24
2023-03-31T05:14:39.232Z,98.33
2023-03-31T05:15:39.249Z,98.49
2023-03-31T05:16:39.218Z,98.58
2023-03-31T05:17:39.238Z,98.49
2023-03-31T05:18:39.212Z,98.58
2023-03-31T05:19:39.180Z,98.69
2023-03-31T05:20:39.140Z,98.90
2023-03-31T05:21:39.150Z,98.90
2023-03-31T05:22:39.318Z,98.90
2023-03-31T05:23:39.166Z,99.20
2023-03-31T05:24:39.113Z,99.30
2023-03-31T05:25:39.165Z,99.51
2023-03-31T05:26:39.068Z,99.71
2023-03-31T05:27:39.115Z,99.91
2023-03-31T05:28:39.087Z,99.91
2023-03-31T05:29:39.065Z,99.99
2023-03-31T05:30:39.008Z,99.99
2023-03-31T05:31:39.037Z,99.99
2023-03-31T05:32:39.020Z,99.99
2023-03-31T05:33:38.997Z,99.99
2023-03-31T05:34:39.007Z,99.99
2023-03-31T05:35:39.052Z,99.99
2023-03-31T05:36:38.930Z,99.99
2023-03-31T05:37:38.946Z,99.99
2023-03-31T05:38:38.929Z,99.99
2023-03-31T05:39:38.934Z,99.99
2023-03-31T05:40:38.891Z,99.99
2023-03-31T05:41:38.898Z,99.99
2023-03-31T05:42:38.853Z,99.99
2023-03-31T05:43:38.869Z,99.99
2023-03-31T05:44:38.872Z,99.99
2023-03-31T05:45:38.848Z,99.99
2023-03-31T05:46:38.839Z,99.99
2023-03-31T05:47:38.850Z,99.99
2023-03-31T05:48:38.814Z,99.99
2023-03-31T05:49:38.793Z,99.99
2023-03-31T05:50:38.759Z,99.99
2023-03-31T05:51:38.762Z,99.99
2023-03-31T05:52:38.758Z,99.99
2023-03-31T05:53:38.801Z,99.99
2023-03-31T05:54:39.461Z,99.99
2023-03-31T05:55:38.724Z,99.99
2023-03-31T05:56:38.680Z,99.99
2023-03-31T05:57:38.700Z,99.99
2023-03-31T05:58:38.681Z,99.99
2023-03-31T05:59:38.699Z,99.99
2023-03-31T06:00:38.684Z,99.99
2023-03-31T06:01:38.709Z,99.99
2023-03-31T06:02:38.666Z,99.99
2023-03-31T06:03:38.680Z,99.99
2023-03-31T06:04:38.712Z,99.99
2023-03-31T06:05:38.578Z,99.99
2023-03-31T06:06:38.547Z,99.99
2023-03-31T06:07:38.604Z,99.99
2023-03-31T06:08:38.547Z,99.99
2023-03-31T06:09:38.527Z,99.99
2023-03-31T06:10:38.498Z,99.99
2023-03-31T06:11:38.525Z,99.99
2023-03-31T06:12:38.455Z,99.99
2023-03-31T06:13:38.492Z,99.99
2023-03-31T06:14:38.466Z,99.99
2023-03-31T06:15:38.456Z,99.99
2023-03-31T06:16:38.444Z,99.99
2023-03-31T06:17:38.743Z,99.99
2023-03-31T06:18:38.393Z,99.99
2023-03-31T06:19:38.409Z,99.99
2023-03-31T06:20:38.349Z,99.99
2023-03-31T06:21:38.390Z,99.99
2023-03-31T06:22:38.362Z,99.99
2023-03-31T06:23:38.346Z,99.99
2023-03-31T06:24:38.314Z,99.99
2023-03-31T06:25:50.364Z,99.99
2023-03-31T06:26:38.290Z,99.99
2023-03-31T06:27:38.300Z,99.99
2023-03-31T06:28:38.272Z,99.99
2023-03-31T06:29:38.282Z,99.99
2023-03-31T06:30:39.210Z,99.99
2023-03-31T06:31:38.283Z,99.99
2023-03-31T06:32:38.220Z,99.99
2023-03-31T06:33:38.238Z,99.99
2023-03-31T06:34:38.172Z,99.99
2023-03-31T06:35:38.221Z,99.99
2023-03-31T06:36:38.162Z,99.99
2023-03-31T06:37:38.178Z,99.99
2023-03-31T06:38:38.161Z,99.99
2023-03-31T06:39:38.140Z,99.99
2023-03-31T06:40:38.126Z,99.99
2023-03-31T06:41:38.108Z,99.99
2023-03-31T06:42:38.088Z,99.99
2023-03-31T06:43:38.086Z,99.99
2023-03-31T06:44:38.066Z,99.99
2023-03-31T06:45:38.102Z,99.99
2023-03-31T06:46:38.044Z,99.99
2023-03-31T06:47:38.318Z,99.78
2023-03-31T06:48:38.130Z,99.68
2023-03-31T06:49:38.588Z,99.37
2023-03-31T06:50:37.960Z,99.37
2023-03-31T06:51:37.965Z,99.16
2023-03-31T06:52:37.953Z,99.11
2023-03-31T06:53:37.968Z,99.11
2023-03-31T06:54:37.960Z,99.11
2023-03-31T06:55:37.942Z,99.11
2023-03-31T06:56:37.872Z,99.02
2023-03-31T06:57:37.893Z,98.91
2023-03-31T06:58:37.862Z,98.71
2023-03-31T06:59:37.869Z,98.61
2023-03-31T07:00:37.862Z,98.61
2023-03-31T07:01:38.131Z,98.61
2023-03-31T07:02:37.894Z,98.71
2023-03-31T07:03:37.908Z,98.61
2023-03-31T07:04:37.794Z,98.50
2023-03-31T07:05:37.811Z,98.20
2023-03-31T07:06:37.794Z,97.99
2023-03-31T07:07:37.765Z,97.99
2023-03-31T07:08:37.735Z,97.79
2023-03-31T07:09:37.754Z,97.89
2023-03-31T07:10:37.732Z,97.44
2023-03-31T07:11:37.725Z,97.54
2023-03-31T07:12:37.699Z,97.33
2023-03-31T07:13:37.675Z,97.03
2023-03-31T07:14:37.679Z,96.83
2023-03-31T07:15:37.666Z,96.31
2023-03-31T07:16:37.773Z,96.11
2023-03-31T07:17:37.721Z,95.96
2023-03-31T07:18:37.620Z,95.86
2023-03-31T07:19:37.615Z,95.15
2023-03-31T07:20:37.583Z,95.15
2023-03-31T07:21:37.648Z,94.84
2023-03-31T07:22:37.564Z,94.64
2023-03-31T07:23:37.573Z,93.92
2023-03-31T07:24:37.514Z,93.41
2023-03-31T07:25:37.520Z,93.67
2023-03-31T07:26:37.495Z,93.47
2023-03-31T07:27:37.513Z,92.96
2023-03-31T07:28:37.580Z,92.86
2023-03-31T07:29:37.445Z,92.55
2023-03-31T07:30:37.450Z,91.74
2023-03-31T07:31:37.457Z,91.43
2023-03-31T07:32:37.458Z,91.02
2023-03-31T07:33:37.389Z,90.41
2023-03-31T07:34:37.798Z,90.10
2023-03-31T07:35:37.376Z,90.51
2023-03-31T07:36:37.481Z,90.41
2023-03-31T07:37:37.331Z,90.00
2023-03-31T07:38:37.413Z,90.00
2023-03-31T07:39:37.330Z,89.08
2023-03-31T07:40:37.338Z,89.39
2023-03-31T07:41:37.285Z,89.39
2023-03-31T07:42:37.330Z,89.18
2023-03-31T07:43:37.267Z,89.08
2023-03-31T07:44:37.278Z,89.08
2023-03-31T07:45:37.294Z,88.67
2023-03-31T07:46:37.338Z,88.67
2023-03-31T07:47:37.242Z,88.67
2023-03-31T07:48:37.247Z,88.88
2023-03-31T07:49:37.225Z,88.17
2023-03-31T07:50:37.187Z,88.47
2023-03-31T07:51:37.156Z,88.47
2023-03-31T07:52:37.221Z,88.26
2023-03-31T07:53:37.135Z,88.47
2023-03-31T07:54:37.171Z,87.96
2023-03-31T07:55:37.105Z,88.06
2023-03-31T07:56:37.109Z,88.06
2023-03-31T07:57:37.082Z,87.04
2023-03-31T07:58:37.089Z,87.51
2023-03-31T07:59:37.076Z,87.00
2023-03-31T08:00:37.166Z,86.76
2023-03-31T08:01:37.044Z,86.41
2023-03-31T08:02:37.106Z,85.19
2023-03-31T08:03:37.039Z,85.55
2023-03-31T08:04:37.053Z,84.64
2023-03-31T08:05:36.970Z,85.05
2023-03-31T08:06:36.980Z,85.14
2023-03-31T08:07:36.970Z,85.28
2023-03-31T08:08:36.967Z,85.19
2023-03-31T08:09:36.954Z,85.49
2023-03-31T08:10:36.938Z,84.88
2023-03-31T08:11:36.910Z,85.28
2023-03-31T08:12:36.901Z,85.63
2023-03-31T08:13:36.856Z,85.63
2023-03-31T08:14:41.137Z,85.94
2023-03-31T08:15:36.874Z,85.53
2023-03-31T08:16:36.968Z,85.84
2023-03-31T08:17:36.842Z,85.84
2023-03-31T08:18:36.840Z,86.04
2023-03-31T08:19:36.779Z,85.33
2023-03-31T08:20:36.810Z,85.84
2023-03-31T08:21:36.807Z,86.24
2023-03-31T08:22:36.764Z,86.15
2023-03-31T08:23:36.735Z,85.63
2023-03-31T08:24:36.831Z,85.74
2023-03-31T08:25:36.717Z,85.63
2023-03-31T08:26:36.755Z,85.84
2023-03-31T08:27:36.742Z,85.60
2023-03-31T08:28:36.723Z,85.19
2023-03-31T08:29:36.655Z,84.94
2023-03-31T08:30:36.656Z,85.55
2023-03-31T08:31:36.662Z,85.11
2023-03-31T08:32:36.677Z,84.29
2023-03-31T08:33:36.597Z,83.95
2023-03-31T08:34:36.621Z,84.05
2023-03-31T08:35:36.612Z,83.29
2023-03-31T08:36:36.578Z,82.07
2023-03-31T08:37:36.582Z,82.14
2023-03-31T08:38:36.567Z,82.04
2023-03-31T08:39:36.523Z,81.73
2023-03-31T08:40:36.531Z,81.84
2023-03-31T08:41:36.495Z,81.49
2023-03-31T08:42:36.571Z,80.47
2023-03-31T08:43:36.460Z,81.15
2023-03-31T08:44:36.469Z,80.74
2023-03-31T08:45:36.486Z,79.12
2023-03-31T08:46:36.497Z,79.32
2023-03-31T08:47:36.500Z,79.52
2023-03-31T08:48:36.427Z,79.56
2023-03-31T08:49:36.406Z,78.95
2023-03-31T08:50:36.413Z,79.46
2023-03-31T08:51:36.377Z,80.27
2023-03-31T08:52:36.373Z,80.31
2023-03-31T08:53:36.348Z,79.70
2023-03-31T08:54:36.350Z,79.29
2023-03-31T08:55:36.341Z,80.00
2023-03-31T08:56:36.351Z,80.31
2023-03-31T08:57:36.307Z,80.45
2023-03-31T08:58:36.310Z,81.16
2023-03-31T08:59:36.274Z,81.12
2023-03-31T09:00:36.289Z,80.62
2023-03-31T09:01:47.705Z,80.51
2023-03-31T09:02:36.333Z,80.51
2023-03-31T09:03:36.291Z,80.78
2023-03-31T09:04:36.261Z,80.74
2023-03-31T09:05:41.179Z,80.10
2023-03-31T09:06:36.193Z,79.18
2023-03-31T09:07:36.165Z,78.88
2023-03-31T09:08:36.177Z,80.16
2023-03-31T09:09:36.119Z,78.74
2023-03-31T09:10:36.698Z,78.50
2023-03-31T09:11:36.090Z,77.55
2023-03-31T09:12:36.116Z,77.28
2023-03-31T09:13:36.098Z,77.28
2023-03-31T09:14:36.072Z,77.01
2023-03-31T09:15:36.051Z,77.42
2023-03-31T09:16:36.072Z,77.83
2023-03-31T09:17:36.070Z,77.32
2023-03-31T09:18:36.081Z,77.42
2023-03-31T09:19:36.015Z,77.52
2023-03-31T09:20:36.014Z,77.32
2023-03-31T09:21:36.018Z,77.52
2023-03-31T09:22:35.993Z,76.85
2023-03-31T09:23:35.944Z,77.45
2023-03-31T09:24:36.032Z,77.76
2023-03-31T09:25:35.948Z,77.76
2023-03-31T09:26:35.916Z,76.95
2023-03-31T09:27:35.904Z,77.15
2023-03-31T09:28:35.932Z,76.75
2023-03-31T09:29:35.906Z,76.98
2023-03-31T09:30:35.873Z,77.49
2023-03-31T09:31:35.909Z,77.43
2023-03-31T09:32:35.902Z,77.83
2023-03-31T09:33:35.813Z,77.63
2023-03-31T09:34:35.829Z,77.63
2023-03-31T09:35:35.843Z,77.02
2023-03-31T09:36:35.829Z,77.19
2023-03-31T09:37:35.782Z,76.58
2023-03-31T09:38:35.805Z,76.98
2023-03-31T09:39:35.750Z,77.36
2023-03-31T09:40:35.750Z,77.05
2023-03-31T09:41:35.708Z,77.12
2023-03-31T09:42:35.753Z,76.91
2023-03-31T09:43:35.734Z,76.57
2023-03-31T09:44:35.695Z,75.05
2023-03-31T09:45:35.678Z,75.12
2023-03-31T09:46:35.754Z,75.08
2023-03-31T09:47:35.672Z,74.54
2023-03-31T09:48:35.664Z,73.32
2023-03-31T09:49:35.596Z,72.88
2023-03-31T09:50:35.616Z,72.31
2023-03-31T09:51:35.570Z,72.52
2023-03-31T09:52:35.645Z,72.04
2023-03-31T09:53:35.576Z,71.47
2023-03-31T09:54:35.583Z,71.16
2023-03-31T09:55:40.050Z,69.37
2023-03-31T09:56:35.542Z,69.27
2023-03-31T09:57:35.707Z,69.91
2023-03-31T09:58:35.506Z,70.79
2023-03-31T09:59:35.539Z,71.09
2023-03-31T10:00:35.478Z,71.40
2023-03-31T10:01:35.489Z,70.96
2023-03-31T10:02:35.473Z,70.12
2023-03-31T10:03:35.562Z,70.52
2023-03-31T10:04:35.680Z,70.42
2023-03-31T10:05:35.403Z,68.93
2023-03-31T10:06:35.413Z,70.25
2023-03-31T10:07:35.379Z,70.86
2023-03-31T10:08:35.383Z,70.65
2023-03-31T10:09:35.355Z,69.54
2023-03-31T10:10:35.392Z,69.88
2023-03-31T10:11:35.310Z,68.76
2023-03-31T10:12:35.353Z,69.00
2023-03-31T10:13:35.325Z,70.08
2023-03-31T10:14:35.340Z,70.08
2023-03-31T10:15:35.306Z,69.78
2023-03-31T10:16:35.281Z,69.98
2023-03-31T10:17:47.265Z,69.47
2023-03-31T10:18:35.312Z,69.81
2023-03-31T10:19:35.263Z,70.11
2023-03-31T10:20:35.234Z,69.91
2023-03-31T10:21:35.205Z,70.52
2023-03-31T10:22:35.190Z,70.62
2023-03-31T10:23:36.142Z,70.42
2023-03-31T10:24:35.205Z,69.91
2023-03-31T10:25:35.163Z,69.91
2023-03-31T10:26:35.134Z,69.30
2023-03-31T10:27:35.109Z,68.59
2023-03-31T10:28:35.147Z,69.71
2023-03-31T10:29:35.065Z,70.01
2023-03-31T10:30:35.102Z,70.32
2023-03-31T10:31:35.101Z,70.21
2023-03-31T10:32:35.117Z,69.91
2023-03-31T10:33:35.164Z,70.52
2023-03-31T10:34:35.058Z,69.51
2023-03-31T10:35:35.058Z,70.11
2023-03-31T10:36:35.008Z,70.89
2023-03-31T10:37:35.008Z,69.81
2023-03-31T10:38:34.981Z,70.01
2023-03-31T10:39:34.941Z,70.72
2023-03-31T10:40:35.085Z,71.64
2023-03-31T10:41:34.930Z,72.14
2023-03-31T10:42:34.943Z,72.78
2023-03-31T10:43:34.903Z,72.78
2023-03-31T10:44:34.932Z,73.02
2023-03-31T10:45:38.020Z,72.96
2023-03-31T10:46:34.936Z,73.09
2023-03-31T10:47:34.901Z,73.33
2023-03-31T10:48:34.852Z,73.57
2023-03-31T10:49:34.852Z,74.28
2023-03-31T10:50:34.819Z,75.23
2023-03-31T10:51:34.791Z,74.93
2023-03-31T10:52:34.815Z,75.02
2023-03-31T10:53:34.771Z,75.57
2023-03-31T10:54:34.806Z,75.57
2023-03-31T10:55:34.734Z,75.88
2023-03-31T10:56:34.765Z,76.28
2023-03-31T10:57:34.769Z,76.62
2023-03-31T10:58:34.727Z,76.01
2023-03-31T10:59:34.777Z,76.22
2023-03-31T11:00:34.683Z,76.32
2023-03-31T11:01:34.766Z,76.53
2023-03-31T11:02:34.741Z,77.07
2023-03-31T11:03:34.735Z,77.78
2023-03-31T11:04:34.683Z,77.98
2023-03-31T11:05:34.611Z,77.72
2023-03-31T11:06:34.618Z,77.82
2023-03-31T11:07:34.585Z,77.62
2023-03-31T11:08:34.615Z,78.53
2023-03-31T11:09:34.579Z,78.53
2023-03-31T11:10:34.609Z,78.53
2023-03-31T11:11:34.547Z,78.43
2023-03-31T11:12:34.546Z,76.80
2023-03-31T11:13:34.512Z,75.16
2023-03-31T11:14:34.548Z,74.45
2023-03-31T11:15:34.582Z,74.66
2023-03-31T11:16:34.636Z,74.05
2023-03-31T11:17:34.503Z,72.89
2023-03-31T11:18:34.463Z,73.40
2023-03-31T11:19:34.411Z,73.19
2023-03-31T11:20:35.122Z,72.99
2023-03-31T11:21:34.422Z,72.96
2023-03-31T11:22:34.414Z,72.65
2023-03-31T11:23:34.363Z,72.55
2023-03-31T11:24:34.383Z,72.24
2023-03-31T11:25:34.324Z,72.24
2023-03-31T11:26:34.421Z,73.06
2023-03-31T11:27:34.325Z,73.94
2023-03-31T11:28:34.315Z,74.35
2023-03-31T11:29:34.310Z,73.84
2023-03-31T11:30:34.281Z,74.45
2023-03-31T11:31:34.288Z,74.96
2023-03-31T11:32:34.316Z,75.43
2023-03-31T11:33:34.225Z,74.41
2023-03-31T11:34:34.243Z,74.41
2023-03-31T11:35:34.242Z,74.82
2023-03-31T11:36:34.298Z,75.02
2023-03-31T11:37:34.192Z,75.13
2023-03-31T11:38:34.191Z,75.95
2023-03-31T11:39:34.155Z,75.64
2023-03-31T11:40:34.184Z,75.33
2023-03-31T11:41:34.163Z,76.15
2023-03-31T11:42:34.132Z,77.17
2023-03-31T11:43:34.096Z,77.37
2023-03-31T11:44:34.087Z,76.76
2023-03-31T11:45:34.140Z,76.31
2023-03-31T11:46:34.104Z,74.79
2023-03-31T11:47:34.101Z,77.23
2023-03-31T11:48:34.033Z,75.09
2023-03-31T11:49:34.065Z,74.69
2023-03-31T11:50:34.001Z,74.38
2023-03-31T11:51:34.036Z,75.09
2023-03-31T11:52:33.964Z,74.69
2023-03-31T11:53:33.991Z,74.99
2023-03-31T11:54:33.984Z,74.62
2023-03-31T11:55:33.975Z,75.54
2023-03-31T11:56:33.928Z,76.04
2023-03-31T11:57:33.993Z,76.35
2023-03-31T11:58:33.937Z,76.76
2023-03-31T11:59:33.939Z,76.35
2023-03-31T12:00:33.867Z,76.96
2023-03-31T12:01:33.893Z,77.17
2023-03-31T12:02:33.854Z,75.84
2023-03-31T12:03:33.947Z,76.18
2023-03-31T12:04:33.845Z,77.00
2023-03-31T12:05:33.879Z,77.71
2023-03-31T12:06:33.806Z,78.42
2023-03-31T12:07:33.813Z,77.81
2023-03-31T12:08:33.767Z,77.40
2023-03-31T12:09:33.785Z,77.20
2023-03-31T12:10:33.769Z,77.00
2023-03-31T12:11:33.744Z,76.79
2023-03-31T12:12:33.731Z,76.79
2023-03-31T12:13:33.728Z,75.67
2023-03-31T12:14:33.704Z,75.98
2023-03-31T12:15:33.736Z,75.98
2023-03-31T12:16:33.754Z,75.57
2023-03-31T12:17:33.750Z,75.57
2023-03-31T12:18:33.633Z,75.98
2023-03-31T12:19:33.636Z,76.28
2023-03-31T12:20:33.670Z,76.18
2023-03-31T12:21:33.629Z,76.18
2023-03-31T12:22:33.581Z,76.15
2023-03-31T12:23:33.603Z,76.45
2023-03-31T12:24:33.548Z,76.25
2023-03-31T12:25:33.570Z,76.25
2023-03-31T12:26:33.547Z,75.13
2023-03-31T12:27:33.570Z,75.64
2023-03-31T12:28:33.508Z,75.74
2023-03-31T12:29:33.520Z,74.93
2023-03-31T12:30:33.506Z,75.02
2023-03-31T12:31:33.543Z,76.15
2023-03-31T12:32:33.457Z,75.95
2023-03-31T12:33:33.452Z,75.98
2023-03-31T12:34:33.413Z,76.79
2023-03-31T12:35:33.493Z,77.30
2023-03-31T12:36:33.439Z,77.91
2023-03-31T12:37:33.413Z,78.32
2023-03-31T12:38:33.380Z,78.42
2023-03-31T12:39:33.394Z,78.63
2023-03-31T12:40:33.353Z,79.03
2023-03-31T12:41:33.352Z,78.93
2023-03-31T12:42:33.340Z,79.54
2023-03-31T12:43:33.350Z,79.75
2023-03-31T12:44:33.285Z,79.75
2023-03-31T12:45:33.302Z,79.24
2023-03-31T12:46:33.352Z,79.64
2023-03-31T12:47:33.329Z,80.16
2023-03-31T12:48:33.252Z,80.16
2023-03-31T12:49:33.290Z,80.16
2023-03-31T12:50:33.203Z,80.05
2023-03-31T12:51:33.236Z,79.89
2023-03-31T12:52:33.207Z,80.50
2023-03-31T12:53:33.196Z,81.31